Antelope, Kansas
Current Conditions -  °F | °C
As of 11:15 AM on Friday 19 Dec 2014 (Local Time) from KEWK Reporting Station
Overcast Overcast  
Wind Chill: 25°   Ceiling: 1700
Heat Index: 30°   Visibility: 5mi
Dew Point: 25°   Wind: 5mph
Humidity: 80%   Direction: 160°SSE
Pressure: 30.26"   Gusts: NA
Location:  38.4689°N, 96.9315°W
Report Text: KEWK 191715Z AUTO 16004KT 5SM SCT004 OVC017 M01/M04 A3026 RMK AO1
Loading
Personal Weather Stations






























Interactive Weather Map New forecast layout! Learn more

10-Day Weather Forecast

Advertisements
Track Severe Weather on mobile